Time;durP1;ratioP1;P1;durP2;ratioP2;P2;SDS_P1;SDS_P2;PMS_P1;PMS_P2;Temp;Humidity;BMP_temperature;BMP_pressure;BME280_temperature;BME280_humidity;BME280_pressure;Samples;Min_cycle;Max_cycle;Signal;HPM_P1;HPM_P2
2022/04/18 00:02:10;;;;;;;4.28;3.85;;;11.40;1.00;;;;;;5055955;28;20481;-89
2022/04/18 00:04:35;;;;;;;3.60;3.30;;;11.40;1.00;;;;;;5055795;28;20187;-89
2022/04/18 00:07:02;;;;;;;4.68;3.42;;;11.30;1.00;;;;;;5056086;28;20035;-89
2022/04/18 00:09:30;;;;;;;3.60;3.30;;;11.40;1.00;;;;;;5055482;28;20070;-89
2022/04/18 00:11:56;;;;;;;4.68;3.40;;;11.40;1.00;;;;;;5052495;28;20025;-89
2022/04/18 00:14:22;;;;;;;3.65;3.35;;;11.20;1.00;;;;;;5057823;28;20427;-89
2022/04/18 00:16:48;;;;;;;4.18;3.25;;;11.00;1.00;;;;;;5055374;28;20056;-89
2022/04/18 00:19:14;;;;;;;4.50;3.50;;;11.00;1.00;;;;;;5055607;28;20048;-89
2022/04/18 00:21:39;;;;;;;4.10;3.55;;;10.90;1.00;;;;;;5055893;28;20031;-89
2022/04/18 00:24:05;;;;;;;7.78;3.55;;;11.00;1.00;;;;;;5052063;28;20029;-88
2022/04/18 00:26:31;;;;;;;6.78;3.47;;;11.00;1.00;;;;;;5057443;28;20443;-89
2022/04/18 00:28:56;;;;;;;4.68;3.17;;;10.80;1.00;;;;;;5056071;28;20060;-89
2022/04/18 00:31:22;;;;;;;3.80;3.40;;;10.90;1.00;;;;;;5055506;28;20032;-89
2022/04/18 00:33:48;;;;;;;4.72;3.42;;;10.90;1.00;;;;;;5055241;28;20035;-89
2022/04/18 00:36:13;;;;;;;4.07;3.50;;;10.80;1.00;;;;;;5051552;28;20476;-88
2022/04/18 00:38:40;;;;;;;3.90;3.40;;;10.80;1.00;;;;;;5055034;28;20025;-89
2022/04/18 00:41:05;;;;;;;4.03;3.08;;;10.80;1.00;;;;;;5055221;28;20040;-89
2022/04/18 00:43:39;;;;;;;3.25;2.92;;;10.80;1.00;;;;;;5055416;28;20017;-89
2022/04/18 00:46:06;;;;;;;3.40;3.10;;;10.70;1.00;;;;;;5055499;28;20029;-89
2022/04/18 00:48:31;;;;;;;3.70;2.90;;;10.80;1.00;;;;;;5054849;28;20021;-89
2022/04/18 00:50:57;;;;;;;3.67;2.80;;;10.80;1.00;;;;;;5051206;28;20702;-88
2022/04/18 00:53:23;;;;;;;4.28;2.92;;;10.80;1.00;;;;;;5057359;28;20489;-89
2022/04/18 00:55:48;;;;;;;2.97;2.60;;;10.70;1.00;;;;;;5055048;28;20115;-89
2022/04/18 00:58:14;;;;;;;3.03;2.53;;;10.70;1.00;;;;;;5055074;28;20485;-89
2022/04/18 01:00:40;;;;;;;2.85;2.58;;;10.70;1.00;;;;;;5055194;28;20029;-89
2022/04/18 01:03:05;;;;;;;2.80;2.53;;;10.70;1.00;;;;;;5050989;28;20033;-88
2022/04/18 01:05:32;;;;;;;3.35;2.65;;;10.60;1.00;;;;;;5056648;28;20577;-88
2022/04/18 01:07:58;;;;;;;4.63;2.83;;;10.50;1.00;;;;;;5055328;28;20028;-89
2022/04/18 01:10:24;;;;;;;3.17;2.70;;;10.30;1.00;;;;;;5054837;28;20076;-89
2022/04/18 01:12:49;;;;;;;2.80;2.60;;;10.30;1.00;;;;;;5053902;28;20052;-89
2022/04/18 01:15:15;;;;;;;2.90;2.60;;;10.20;1.00;;;;;;5035732;28;20037;-89
2022/04/18 01:17:40;;;;;;;4.00;3.17;;;10.20;1.00;;;;;;5053508;28;20102;-89
2022/04/18 01:20:07;;;;;;;3.78;2.70;;;10.20;1.00;;;;;;5054456;28;20064;-89
2022/04/18 01:22:33;;;;;;;2.70;2.45;;;10.00;1.00;;;;;;5054632;28;20040;-88
2022/04/18 01:30:27;;;;;;;4.30;2.40;;;10.10;1.00;;;;;;5054301;28;20032;-88
2022/04/18 01:32:53;;;;;;;3.10;2.67;;;10.00;1.00;;;;;;5050581;28;20053;-89
2022/04/18 01:35:19;;;;;;;2.60;2.40;;;9.90;1.00;;;;;;5056651;28;20484;-89
2022/04/18 01:37:44;;;;;;;2.65;2.42;;;10.30;1.00;;;;;;5054381;28;20029;-89
2022/04/18 01:40:10;;;;;;;3.47;2.80;;;10.00;1.00;;;;;;5054603;28;20028;-89
2022/04/18 01:42:36;;;;;;;2.42;2.22;;;9.90;1.00;;;;;;5054437;28;20066;-89
2022/04/18 01:45:01;;;;;;;2.65;2.35;;;9.70;1.00;;;;;;5050358;28;20060;-89
2022/04/18 01:47:27;;;;;;;2.95;2.63;;;9.90;1.00;;;;;;5056231;28;20025;-89
2022/04/18 01:49:53;;;;;;;4.00;2.40;;;9.80;1.00;;;;;;5054382;28;20036;-88
2022/04/18 01:52:19;;;;;;;2.72;2.40;;;9.80;1.00;;;;;;5054825;28;20482;-88
2022/04/18 01:54:44;;;;;;;3.75;2.53;;;9.90;1.00;;;;;;5052713;28;20029;-89
2022/04/18 01:57:10;;;;;;;3.03;2.30;;;9.80;1.00;;;;;;5049716;28;20577;-89
2022/04/18 01:59:36;;;;;;;3.38;2.20;;;9.90;1.00;;;;;;5054357;28;20066;-89
2022/04/18 02:02:02;;;;;;;3.50;2.35;;;9.90;1.00;;;;;;5054908;28;20033;-89
2022/04/18 02:04:27;;;;;;;2.60;2.33;;;9.90;1.00;;;;;;5054069;28;20040;-89
2022/04/18 02:06:53;;;;;;;3.95;2.47;;;9.70;1.00;;;;;;5054139;28;20033;-89
2022/04/18 02:09:19;;;;;;;5.03;2.30;;;9.50;1.00;;;;;;5052523;28;20036;-89
2022/04/18 02:11:44;;;;;;;3.20;2.45;;;9.30;1.00;;;;;;5051810;28;20033;-88
2022/04/18 02:14:10;;;;;;;2.80;2.33;;;9.30;1.00;;;;;;5053936;28;20020;-89
2022/04/18 02:16:35;;;;;;;2.65;2.33;;;9.40;1.00;;;;;;5054044;28;20066;-89
2022/04/18 02:19:01;;;;;;;4.03;2.58;;;9.70;1.00;;;;;;5054023;28;20025;-89
2022/04/18 02:21:27;;;;;;;2.85;2.42;;;9.60;1.00;;;;;;5053304;28;20029;-88
2022/04/18 02:23:52;;;;;;;3.38;2.72;;;9.50;1.00;;;;;;5050325;28;20144;-89
2022/04/18 02:26:18;;;;;;;4.43;2.35;;;9.50;1.00;;;;;;5056319;28;20063;-89
2022/04/18 02:28:43;;;;;;;2.63;2.42;;;9.60;1.00;;;;;;5053700;28;20025;-89
2022/04/18 02:31:09;;;;;;;2.70;2.50;;;9.60;1.00;;;;;;5053714;28;20401;-88
2022/04/18 02:33:35;;;;;;;4.10;2.50;;;9.80;1.00;;;;;;5052551;28;20485;-89
2022/04/18 02:36:01;;;;;;;2.83;2.55;;;9.60;1.00;;;;;;5047968;28;20033;-89
2022/04/18 02:38:27;;;;;;;2.67;2.42;;;9.60;1.00;;;;;;5056129;28;20544;-88
2022/04/18 02:40:53;;;;;;;3.47;2.40;;;9.70;1.00;;;;;;5057150;28;20029;-89
2022/04/18 02:43:19;;;;;;;2.90;2.33;;;9.70;1.00;;;;;;5057791;28;20086;-89
2022/04/18 02:45:44;;;;;;;2.42;2.22;;;9.30;1.00;;;;;;5057199;28;20078;-89
2022/04/18 02:48:10;;;;;;;3.28;2.67;;;9.20;1.00;;;;;;5054657;28;20061;-89
2022/04/18 02:50:36;;;;;;;2.63;2.42;;;9.10;1.00;;;;;;5057549;28;20037;-88
2022/04/18 02:53:01;;;;;;;3.10;2.33;;;9.00;1.00;;;;;;5058643;28;20052;-89
2022/04/18 02:55:28;;;;;;;2.95;2.40;;;9.10;1.00;;;;;;5057518;28;20043;-89
2022/04/18 02:57:53;;;;;;;2.80;2.60;;;9.10;1.00;;;;;;5057435;28;20028;-88
2022/04/18 03:00:19;;;;;;;2.70;2.30;;;9.10;1.00;;;;;;5053954;28;20039;-88
2022/04/18 03:02:45;;;;;;;4.13;2.22;;;9.10;1.00;;;;;;5054838;28;20079;-89
2022/04/18 03:05:12;;;;;;;4.18;2.50;;;9.30;1.00;;;;;;5059611;28;20509;-89
2022/04/18 03:07:38;;;;;;;3.60;2.50;;;9.00;1.00;;;;;;5057392;28;20028;-89
2022/04/18 03:10:05;;;;;;;3.10;2.38;;;9.00;1.00;;;;;;5057310;28;20029;-89
2022/04/18 03:12:31;;;;;;;2.67;2.28;;;9.20;1.00;;;;;;5055689;28;20247;-89
2022/04/18 03:14:56;;;;;;;2.70;2.50;;;9.20;1.00;;;;;;5051991;28;22601;-88
2022/04/18 03:17:22;;;;;;;4.40;2.55;;;9.00;1.00;;;;;;5058630;28;20021;-89
2022/04/18 03:19:47;;;;;;;3.00;2.67;;;8.90;1.00;;;;;;5056977;28;20028;-89
2022/04/18 03:22:13;;;;;;;2.63;2.40;;;8.90;1.00;;;;;;5056943;28;20029;-89
2022/04/18 03:24:39;;;;;;;2.60;2.30;;;9.00;1.00;;;;;;5057309;28;20028;-88
2022/04/18 03:27:05;;;;;;;3.40;2.08;;;8.80;1.00;;;;;;5053126;28;20082;-88
2022/04/18 03:29:31;;;;;;;3.67;2.58;;;8.60;1.00;;;;;;5058021;28;20039;-89
2022/04/18 03:31:58;;;;;;;4.13;2.60;;;8.80;1.00;;;;;;5056964;28;20132;-88
2022/04/18 03:34:24;;;;;;;3.88;2.40;;;8.70;1.00;;;;;;5056933;28;20033;-89
2022/04/18 03:39:51;;;;;;;2.92;2.70;;;8.60;1.00;;;;;;5056760;28;20127;-89
2022/04/18 03:42:29;;;;;;;2.65;2.35;;;8.40;1.00;;;;;;5054178;28;20075;-89
2022/04/18 03:44:58;;;;;;;2.63;2.42;;;8.60;1.00;;;;;;5052616;28;20052;-89
2022/04/18 03:47:24;;;;;;;3.05;2.60;;;8.60;1.00;;;;;;5057324;28;20013;-89
2022/04/18 03:49:50;;;;;;;2.92;2.63;;;8.80;1.00;;;;;;5056498;28;20091;-89
2022/04/18 03:52:16;;;;;;;3.65;2.30;;;8.30;1.00;;;;;;5053880;28;20089;-89
2022/04/18 03:54:43;;;;;;;4.55;2.15;;;8.40;1.00;;;;;;5053848;28;20044;-89
2022/04/18 03:57:09;;;;;;;2.53;2.33;;;8.60;1.00;;;;;;5052755;28;20017;-89
2022/04/18 03:59:35;;;;;;;3.88;2.55;;;8.50;1.00;;;;;;5056570;28;20064;-89
2022/04/18 04:02:00;;;;;;;2.80;2.35;;;8.20;1.00;;;;;;5057282;28;20053;-89
2022/04/18 04:04:26;;;;;;;4.07;2.10;;;8.10;1.00;;;;;;5056166;28;20044;-89
2022/04/18 04:06:52;;;;;;;2.70;2.20;;;8.30;1.00;;;;;;5056161;28;20017;-89
2022/04/18 04:09:17;;;;;;;5.45;2.35;;;8.50;1.00;;;;;;5054145;28;20062;-89
2022/04/18 04:11:43;;;;;;;5.00;2.45;;;8.30;1.00;;;;;;5054106;28;20017;-89
2022/04/18 04:14:08;;;;;;;2.75;2.38;;;8.00;1.00;;;;;;5058073;28;20111;-89
2022/04/18 04:16:35;;;;;;;3.45;2.47;;;8.10;1.00;;;;;;5055950;28;20182;-89
2022/04/18 04:19:01;;;;;;;2.30;2.10;;;8.20;1.00;;;;;;5055960;28;20503;-90
2022/04/18 04:21:27;;;;;;;2.35;2.08;;;8.30;1.00;;;;;;5055215;28;20028;-89
2022/04/18 04:23:52;;;;;;;3.10;2.33;;;8.60;1.00;;;;;;5052328;28;20160;-89
2022/04/18 04:26:18;;;;;;;2.42;2.20;;;8.30;1.00;;;;;;5057604;28;20083;-89
2022/04/18 04:28:43;;;;;;;2.65;2.30;;;8.20;1.00;;;;;;5055798;28;20087;-89
2022/04/18 04:31:09;;;;;;;2.50;2.30;;;8.20;1.00;;;;;;5054159;28;20021;-89
2022/04/18 04:33:35;;;;;;;4.70;2.63;;;8.10;1.00;;;;;;5054622;28;20511;-89
2022/04/18 04:36:00;;;;;;;2.60;2.20;;;8.00;1.00;;;;;;5051043;28;20539;-89
2022/04/18 04:38:27;;;;;;;3.20;2.42;;;7.80;1.00;;;;;;5064446;28;20109;-89
2022/04/18 04:40:53;;;;;;;2.40;2.20;;;7.80;1.00;;;;;;5055612;28;20033;-89
2022/04/18 04:43:28;;;;;;;3.80;2.50;;;7.90;1.00;;;;;;5055468;28;20028;-89
2022/04/18 04:45:57;;;;;;;3.00;2.30;;;7.90;1.00;;;;;;5055412;28;20405;-89
2022/04/18 04:48:26;;;;;;;3.38;2.40;;;7.80;1.00;;;;;;5054105;28;20031;-89
2022/04/18 04:50:52;;;;;;;3.63;2.50;;;7.90;1.00;;;;;;5051816;28;20116;-89
2022/04/18 04:53:18;;;;;;;2.38;2.10;;;8.00;1.00;;;;;;5056131;28;20025;-89
2022/04/18 04:55:44;;;;;;;2.45;2.25;;;8.10;1.00;;;;;;5054694;28;20451;-88
2022/04/18 04:58:11;;;;;;;3.22;2.38;;;8.20;1.00;;;;;;5055445;28;20071;-89
2022/04/18 05:00:37;;;;;;;4.40;2.35;;;8.30;1.00;;;;;;5055188;28;20497;-89
2022/04/18 05:03:04;;;;;;;4.95;2.40;;;8.40;1.00;;;;;;5050824;28;20026;-89
2022/04/18 05:05:29;;;;;;;2.85;2.30;;;8.40;1.00;;;;;;5056841;28;20025;-89
2022/04/18 05:07:55;;;;;;;2.47;2.25;;;8.30;1.00;;;;;;5054928;28;20040;-89
2022/04/18 05:10:21;;;;;;;5.63;2.80;;;8.30;1.00;;;;;;5053063;28;20037;-89
2022/04/18 05:12:48;;;;;;;3.78;2.53;;;8.40;1.00;;;;;;5053423;28;20027;-89
2022/04/18 05:15:14;;;;;;;2.60;2.20;;;8.70;1.00;;;;;;5052508;28;20029;-89
2022/04/18 05:17:39;;;;;;;3.70;2.63;;;8.70;1.00;;;;;;5054113;28;20075;-89
2022/04/18 05:20:06;;;;;;;2.95;2.30;;;8.40;1.00;;;;;;5055871;28;20029;-89
2022/04/18 05:22:32;;;;;;;2.97;2.50;;;8.50;1.00;;;;;;5054814;28;20039;-89
2022/04/18 05:24:58;;;;;;;3.13;2.42;;;8.50;1.00;;;;;;5054572;28;20029;-89
2022/04/18 05:27:24;;;;;;;2.97;2.30;;;8.50;1.00;;;;;;5053894;28;20422;-89
2022/04/18 05:29:50;;;;;;;4.97;2.75;;;8.60;1.00;;;;;;5051486;28;20029;-89
2022/04/18 05:32:16;;;;;;;4.90;2.75;;;8.60;1.00;;;;;;5056264;28;20049;-89
2022/04/18 05:34:43;;;;;;;3.55;2.42;;;8.50;1.00;;;;;;5054620;28;20045;-89
2022/04/18 05:37:09;;;;;;;3.00;2.63;;;8.50;1.00;;;;;;5054486;28;20107;-89
2022/04/18 05:39:35;;;;;;;3.20;2.70;;;8.40;1.00;;;;;;5054526;28;20153;-88
2022/04/18 05:42:01;;;;;;;5.10;2.42;;;8.30;1.00;;;;;;5050464;28;20025;-89
2022/04/18 05:44:27;;;;;;;2.83;2.50;;;8.40;1.00;;;;;;5063456;28;20388;-89
2022/04/18 05:46:53;;;;;;;3.08;2.58;;;8.50;1.00;;;;;;5054556;28;20025;-89
2022/04/18 05:49:18;;;;;;;2.97;2.67;;;8.40;1.00;;;;;;5052946;28;20098;-89
2022/04/18 05:51:44;;;;;;;3.38;2.50;;;8.50;1.00;;;;;;5051370;28;20028;-89
2022/04/18 05:54:10;;;;;;;3.70;2.50;;;8.50;1.00;;;;;;5051057;28;20025;-89
2022/04/18 05:56:36;;;;;;;3.08;2.60;;;8.40;1.00;;;;;;5054326;28;20045;-89
2022/04/18 05:59:02;;;;;;;5.38;2.80;;;8.80;1.00;;;;;;5054716;28;20021;-89
2022/04/18 06:01:28;;;;;;;3.15;2.70;;;8.80;1.00;;;;;;5053248;28;20389;-89
2022/04/18 06:03:55;;;;;;;4.15;2.90;;;8.90;1.00;;;;;;5054459;28;20029;-89
2022/04/18 06:06:20;;;;;;;3.50;3.20;;;8.80;1.00;;;;;;5052463;28;20037;-89
2022/04/18 06:08:47;;;;;;;3.42;2.55;;;9.00;1.00;;;;;;5051142;28;20022;-89
2022/04/18 06:11:13;;;;;;;3.42;3.13;;;9.10;1.00;;;;;;5056309;28;20029;-89
2022/04/18 06:13:39;;;;;;;4.13;3.10;;;9.20;1.00;;;;;;5054159;28;20432;-89
2022/04/18 06:16:05;;;;;;;4.25;3.50;;;9.00;1.00;;;;;;5057714;28;20032;-89
2022/04/18 06:18:32;;;;;;;4.25;3.50;;;9.20;1.00;;;;;;5057930;28;20021;-90
2022/04/18 06:20:58;;;;;;;3.55;3.25;;;9.20;1.00;;;;;;5053978;28;20488;-90
2022/04/18 06:23:24;;;;;;;3.92;3.10;;;9.30;1.00;;;;;;5060070;28;20025;-89
2022/04/18 06:25:49;;;;;;;4.68;3.47;;;9.30;1.00;;;;;;5057969;28;20029;-89
2022/04/18 06:28:15;;;;;;;5.70;3.70;;;9.20;1.00;;;;;;5056771;28;20025;-89
2022/04/18 06:30:41;;;;;;;5.00;3.78;;;9.50;1.00;;;;;;5056754;28;20024;-89
2022/04/18 06:33:12;;;;;;;3.75;3.28;;;9.30;1.00;;;;;;5054138;28;20040;-89
2022/04/18 06:35:38;;;;;;;5.60;3.40;;;9.40;1.00;;;;;;5057411;28;20033;-89
2022/04/18 06:38:04;;;;;;;4.10;3.00;;;9.30;1.00;;;;;;5058873;28;20395;-89
2022/04/18 06:40:30;;;;;;;5.82;3.53;;;9.30;1.00;;;;;;5057585;28;20032;-90
2022/04/18 06:42:56;;;;;;;4.40;3.30;;;9.40;1.00;;;;;;5057891;28;20032;-89
2022/04/18 06:45:21;;;;;;;3.92;3.20;;;9.50;1.00;;;;;;5056149;28;20032;-89
2022/04/18 06:47:47;;;;;;;4.53;3.03;;;9.50;1.00;;;;;;5054906;28;20493;-89
2022/04/18 06:50:13;;;;;;;3.58;3.10;;;9.90;1.00;;;;;;5059668;28;20083;-89
2022/04/18 06:52:40;;;;;;;3.03;2.72;;;9.80;1.00;;;;;;5057241;28;20021;-89
2022/04/18 06:55:09;;;;;;;3.85;2.80;;;10.00;1.00;;;;;;5057178;28;20066;-89
2022/04/18 06:57:35;;;;;;;3.63;2.67;;;10.10;1.00;;;;;;5057573;28;20389;-88
2022/04/18 07:00:05;;;;;;;6.10;2.70;;;10.30;1.00;;;;;;5053064;28;20112;-89
2022/04/18 07:02:31;;;;;;;2.80;2.60;;;10.40;1.00;;;;;;5058764;28;20048;-89
2022/04/18 07:04:56;;;;;;;3.10;2.80;;;10.60;1.00;;;;;;5057373;28;20493;-89
2022/04/18 07:07:22;;;;;;;3.90;3.15;;;10.60;1.00;;;;;;5056290;28;20021;-90
2022/04/18 07:09:48;;;;;;;3.88;2.88;;;10.60;1.00;;;;;;5055767;28;20488;-89
2022/04/18 07:12:13;;;;;;;4.25;3.08;;;10.70;1.00;;;;;;5054641;28;20523;-89
2022/04/18 07:14:39;;;;;;;3.22;2.92;;;10.90;1.00;;;;;;5056524;28;20017;-89
2022/04/18 07:17:06;;;;;;;5.80;3.58;;;11.10;1.00;;;;;;5058602;28;20040;-89
2022/04/18 07:19:33;;;;;;;4.50;3.05;;;11.10;1.00;;;;;;5056671;28;20029;-89
2022/04/18 07:21:58;;;;;;;6.97;3.30;;;11.20;1.00;;;;;;5057057;28;20025;-90
2022/04/18 07:24:24;;;;;;;4.53;3.40;;;11.30;1.00;;;;;;5055594;28;20086;-89
2022/04/18 07:26:51;;;;;;;3.95;3.50;;;11.30;1.00;;;;;;5054100;28;20021;-89
2022/04/18 07:29:17;;;;;;;4.00;2.83;;;11.50;1.00;;;;;;5058615;28;20489;-89
2022/04/18 07:31:43;;;;;;;4.53;2.90;;;11.50;1.00;;;;;;5057006;28;20049;-90
2022/04/18 07:34:08;;;;;;;4.22;3.15;;;11.70;1.00;;;;;;5056467;28;20086;-89
2022/04/18 07:36:34;;;;;;;4.40;3.53;;;11.90;1.00;;;;;;5056654;28;20496;-89
2022/04/18 07:39:00;;;;;;;5.60;3.50;;;11.90;1.00;;;;;;5052543;28;20033;-88
2022/04/18 07:41:27;;;;;;;5.43;3.95;;;11.90;1.00;;;;;;5058780;28;20131;-89
2022/04/18 07:43:55;;;;;;;5.65;3.65;;;11.90;1.00;;;;;;5056830;28;20174;-89
2022/04/18 07:46:21;;;;;;;5.60;3.45;;;12.00;1.00;;;;;;5055154;28;20032;-89
2022/04/18 07:48:49;;;;;;;4.63;3.42;;;12.10;1.00;;;;;;5054887;28;20024;-90
2022/04/18 07:54:02;;;;;;;6.43;2.80;;;12.20;1.00;;;;;;5036690;28;20035;-90
2022/04/18 07:56:28;;;;;;;6.88;3.28;;;12.30;1.00;;;;;;5065439;28;20481;-90
2022/04/18 07:58:53;;;;;;;5.57;3.17;;;12.40;1.00;;;;;;5056685;28;20025;-90
2022/04/18 08:01:20;;;;;;;4.22;3.20;;;12.50;1.00;;;;;;5055542;28;20044;-90
2022/04/18 08:03:47;;;;;;;3.83;3.05;;;12.60;1.00;;;;;;5055801;28;20032;-90
2022/04/18 08:06:13;;;;;;;3.47;3.13;;;12.70;1.00;;;;;;5053426;28;20024;-90
2022/04/18 08:08:38;;;;;;;5.38;3.00;;;12.90;1.00;;;;;;5055851;28;20371;-90
2022/04/18 08:11:04;;;;;;;4.47;3.10;;;13.00;1.00;;;;;;5056129;28;20029;-90
2022/04/18 08:13:31;;;;;;;3.13;2.67;;;13.10;1.00;;;;;;5056076;28;20040;-90
2022/04/18 08:15:57;;;;;;;4.78;3.10;;;13.10;1.00;;;;;;5055885;28;20072;-90
2022/04/18 08:18:23;;;;;;;3.35;2.85;;;13.10;1.00;;;;;;5054159;28;20033;-90
2022/04/18 08:20:48;;;;;;;2.90;2.60;;;13.10;1.00;;;;;;5051817;28;20492;-89
2022/04/18 08:23:14;;;;;;;3.70;2.90;;;13.20;1.00;;;;;;5058245;28;20025;-90
2022/04/18 08:25:40;;;;;;;3.63;2.75;;;13.30;1.00;;;;;;5054449;28;20036;-90
2022/04/18 08:28:06;;;;;;;4.00;3.33;;;13.30;1.00;;;;;;5054270;28;20047;-90
2022/04/18 08:30:32;;;;;;;3.40;2.88;;;13.40;1.00;;;;;;5055542;28;20029;-90
2022/04/18 08:32:57;;;;;;;3.30;2.63;;;13.40;1.00;;;;;;5051278;28;20066;-90
2022/04/18 08:35:23;;;;;;;3.78;2.95;;;13.50;1.00;;;;;;5057365;28;20041;-90
2022/04/18 08:37:49;;;;;;;3.20;2.90;;;13.60;1.00;;;;;;5055487;28;20025;-89
2022/04/18 08:40:15;;;;;;;5.72;3.17;;;13.60;1.00;;;;;;5055609;28;20036;-90
2022/04/18 08:42:42;;;;;;;3.25;2.95;;;13.70;1.00;;;;;;5055533;28;20033;-90
2022/04/18 08:45:11;;;;;;;5.82;3.00;;;13.80;1.00;;;;;;5051866;28;20386;-89
2022/04/18 08:53:10;;;;;;;4.50;3.00;;;13.90;1.00;;;;;;5056728;28;20024;-90
2022/04/18 08:55:36;;;;;;;4.90;3.05;;;13.90;1.00;;;;;;5055382;28;20114;-90
2022/04/18 08:58:02;;;;;;;7.68;3.58;;;14.10;1.00;;;;;;5055251;28;20032;-90
2022/04/18 09:00:28;;;;;;;3.45;3.13;;;14.20;1.00;;;;;;5054221;28;20115;-90
2022/04/18 09:02:54;;;;;;;4.55;2.97;;;14.50;1.00;;;;;;5051266;28;20104;-90
2022/04/18 09:05:21;;;;;;;3.30;3.00;;;14.60;1.00;;;;;;5056536;28;20366;-90
2022/04/18 09:08:01;;;;;;;3.83;3.08;;;14.70;1.00;;;;;;5053374;28;20032;-89
2022/04/18 09:10:27;;;;;;;4.07;3.03;;;14.80;1.00;;;;;;5054948;28;20392;-90
2022/04/18 09:12:54;;;;;;;3.25;2.72;;;14.60;1.00;;;;;;5054840;28;20060;-89
2022/04/18 09:15:39;;;;;;;3.05;2.80;;;14.70;1.00;;;;;;5052725;28;20485;-90
2022/04/18 09:18:20;;;;;;;4.82;3.33;;;14.80;1.00;;;;;;5035972;28;20025;-91
2022/04/18 09:20:47;;;;;;;4.32;3.00;;;14.90;1.00;;;;;;5052667;28;20021;-90
2022/04/18 09:23:20;;;;;;;5.57;3.10;;;14.90;1.00;;;;;;5054683;28;20020;-89
2022/04/18 09:25:50;;;;;;;6.20;2.97;;;15.10;1.00;;;;;;5054565;28;20025;-90
2022/04/18 09:28:16;;;;;;;3.20;2.90;;;15.20;1.00;;;;;;5054771;28;20021;-90
2022/04/18 09:30:42;;;;;;;6.10;3.10;;;15.30;1.00;;;;;;5054472;28;20028;-90
2022/04/18 09:33:08;;;;;;;3.35;3.05;;;15.40;1.00;;;;;;5051189;28;20037;-90
2022/04/18 09:35:35;;;;;;;3.00;2.70;;;15.50;1.00;;;;;;5055105;28;20035;-89
2022/04/18 09:38:06;;;;;;;3.60;3.13;;;15.40;1.00;;;;;;5053720;28;20029;-90
2022/04/18 09:40:37;;;;;;;4.50;3.35;;;15.40;1.00;;;;;;5054236;28;20115;-90
2022/04/18 09:43:03;;;;;;;4.35;3.03;;;15.50;1.00;;;;;;5053159;28;20033;-90
2022/04/18 09:45:29;;;;;;;4.47;2.80;;;15.80;1.00;;;;;;5052286;28;20020;-90
2022/04/18 09:48:02;;;;;;;5.00;2.88;;;15.90;1.00;;;;;;5050672;28;20033;-90
2022/04/18 09:53:21;;;;;;;3.13;2.83;;;15.80;1.00;;;;;;5054490;28;20156;-90
2022/04/18 09:55:47;;;;;;;4.72;3.03;;;15.90;1.00;;;;;;5054141;28;20067;-90
2022/04/18 09:58:13;;;;;;;4.63;2.85;;;16.00;1.00;;;;;;5054683;28;20029;-89
2022/04/18 10:00:41;;;;;;;6.20;3.03;;;16.00;1.00;;;;;;5053701;28;20034;-90
2022/04/18 10:03:08;;;;;;;3.70;3.38;;;16.00;1.00;;;;;;5050687;28;20029;-90
2022/04/18 10:05:34;;;;;;;3.22;2.80;;;16.00;1.00;;;;;;5055047;28;20051;-90
2022/04/18 10:08:03;;;;;;;3.10;2.80;;;16.00;1.00;;;;;;5053587;28;20086;-90
2022/04/18 10:10:41;;;;;;;4.75;2.90;;;16.30;1.00;;;;;;5054141;28;20032;-90
2022/04/18 10:13:10;;;;;;;10.85;8.77;;;16.50;1.00;;;;;;5054031;28;20405;-90
2022/04/18 10:15:37;;;;;;;4.07;2.80;;;16.90;1.00;;;;;;5053789;28;20041;-90
2022/04/18 10:18:05;;;;;;;3.58;2.60;;;16.70;1.00;;;;;;5049947;28;20026;-90
2022/04/18 10:20:54;;;;;;;2.58;2.28;;;16.80;1.00;;;;;;5056072;28;20037;-91
2022/04/18 10:23:22;;;;;;;2.65;2.45;;;16.70;1.00;;;;;;5054904;28;20025;-90
2022/04/18 10:26:22;;;;;;;3.63;2.85;;;17.20;1.00;;;;;;5052327;28;20029;-90
2022/04/18 10:28:51;;;;;;;8.98;7.47;;;17.50;1.00;;;;;;5053598;28;20033;-90
2022/04/18 10:31:34;;;;;;;5.68;5.15;;;18.00;1.00;;;;;;5053658;28;20104;-90
2022/04/18 10:34:00;;;;;;;4.95;3.15;;;18.60;1.00;;;;;;5053962;28;20036;-91
2022/04/18 10:36:31;;;;;;;3.90;2.65;;;18.90;1.00;;;;;;5052772;28;20524;-91
2022/04/18 10:39:03;;;;;;;5.00;2.80;;;19.90;1.00;;;;;;5049779;28;20547;-91
2022/04/18 10:41:39;;;;;;;5.28;4.78;;;20.10;1.00;;;;;;5063501;28;20350;-91
2022/04/18 10:44:12;;;;;;;6.60;4.20;;;21.00;1.00;;;;;;5054388;28;20385;-91
2022/04/18 10:47:00;;;;;;;3.42;3.13;;;21.20;1.00;;;;;;5053830;28;20579;-91
2022/04/18 10:49:27;;;;;;;3.33;3.05;;;21.60;1.00;;;;;;5053813;28;20068;-92
2022/04/18 10:51:54;;;;;;;5.13;3.28;;;21.80;1.00;;;;;;5053712;28;20016;-91
2022/04/18 10:54:30;;;;;;;5.78;4.57;;;22.10;1.00;;;;;;5052297;28;20038;-92
2022/04/18 10:57:12;;;;;;;3.80;3.10;;;22.60;1.00;;;;;;5049750;28;20513;-91
2022/04/18 10:59:44;;;;;;;4.32;3.92;;;23.10;1.00;;;;;;5063815;28;20056;-92
2022/04/18 11:02:36;;;;;;;4.28;3.00;;;22.80;1.00;;;;;;5058720;28;20025;-92
2022/04/18 11:05:02;;;;;;;3.30;3.00;;;23.00;1.00;;;;;;5056809;28;20021;-92
2022/04/18 11:07:43;;;;;;;3.85;3.15;;;23.20;1.00;;;;;;5058967;28;20563;-92
2022/04/18 11:10:23;;;;;;;4.43;3.13;;;23.20;1.00;;;;;;5057750;28;20393;-91
2022/04/18 11:12:50;;;;;;;4.43;3.97;;;23.80;1.00;;;;;;5056818;28;20074;-91
2022/04/18 11:15:17;;;;;;;4.28;3.03;;;24.90;1.00;;;;;;5055106;28;20037;-91
2022/04/18 11:17:43;;;;;;;3.88;2.80;;;24.80;1.00;;;;;;5055948;28;20021;-91
2022/04/18 11:20:28;;;;;;;5.22;3.08;;;24.90;1.00;;;;;;5058942;28;20036;-89
2022/04/18 11:23:27;;;;;;;2.97;2.75;;;25.60;1.00;;;;;;5057552;28;20444;-90
2022/04/18 11:26:03;;;;;;;3.20;2.58;;;26.10;1.00;;;;;;5031717;28;20061;-90
2022/04/18 11:28:38;;;;;;;3.47;2.75;;;25.60;1.00;;;;;;5031751;28;20033;-90
2022/04/18 11:31:17;;;;;;;3.10;2.42;;;25.70;1.00;;;;;;5031847;28;20518;-89
2022/04/18 11:33:44;;;;;;;2.75;2.55;;;26.30;1.00;;;;;;5031636;28;20056;-90
2022/04/18 11:36:13;;;;;;;3.35;2.47;;;26.50;99.90;;;;;;5031564;28;20500;-90
2022/04/18 11:38:40;;;;;;;2.40;2.20;;;26.20;99.90;;;;;;5032273;28;20032;-89
2022/04/18 11:41:12;;;;;;;2.65;2.33;;;26.10;99.90;;;;;;5031578;28;20071;-90
2022/04/18 11:43:38;;;;;;;2.33;2.13;;;26.20;99.90;;;;;;5031454;28;20028;-90
2022/04/18 11:46:07;;;;;;;2.67;2.40;;;26.40;99.90;;;;;;5031533;28;20453;-89
2022/04/18 11:48:34;;;;;;;2.45;2.25;;;26.20;99.90;;;;;;5031546;28;20029;-92
2022/04/18 11:51:00;;;;;;;2.17;1.98;;;27.00;99.90;;;;;;5031541;28;20112;-91
2022/04/18 11:53:31;;;;;;;4.18;2.45;;;27.40;99.90;;;;;;5031993;28;20438;-92
2022/04/18 11:55:57;;;;;;;2.80;2.20;;;27.60;99.90;;;;;;5030718;28;20496;-92
2022/04/18 11:58:22;;;;;;;2.58;2.38;;;27.00;99.90;;;;;;5031477;28;20068;-92
2022/04/18 12:09:07;;;;;;;3.45;2.00;;;27.30;99.90;;;;;;5036421;28;20589;-92
2022/04/18 12:11:34;;;;;;;1.90;1.80;;;26.50;99.90;;;;;;5065359;28;20154;-92
2022/04/18 12:14:00;;;;;;;1.80;1.70;;;27.30;99.90;;;;;;5056142;28;20017;-92
2022/04/18 12:16:26;;;;;;;3.53;1.95;;;26.90;99.90;;;;;;5055915;28;20041;-92
2022/04/18 12:18:55;;;;;;;2.00;1.80;;;27.60;99.90;;;;;;5054645;28;20495;-92
2022/04/18 12:21:23;;;;;;;2.05;1.90;;;28.30;99.90;;;;;;5052687;28;20483;-92
2022/04/18 12:23:59;;;;;;;3.33;2.15;;;29.60;99.90;;;;;;5052885;28;20048;-92
2022/04/18 12:26:26;;;;;;;3.50;2.00;;;29.60;99.90;;;;;;5058155;28;20104;-92
2022/04/18 12:28:59;;;;;;;2.30;2.10;;;29.70;99.90;;;;;;5055866;28;20033;-90
2022/04/18 12:31:25;;;;;;;3.00;2.05;;;29.50;99.90;;;;;;5055701;28;20037;-89
2022/04/18 12:33:51;;;;;;;2.50;1.77;;;30.00;99.90;;;;;;5055749;28;20408;-90
2022/04/18 12:36:28;;;;;;;3.25;2.00;;;30.50;99.90;;;;;;5053054;28;20037;-90
2022/04/18 12:38:54;;;;;;;2.50;2.30;;;30.50;99.90;;;;;;5052039;28;20029;-89
2022/04/18 12:41:37;;;;;;;2.47;2.00;;;30.90;99.90;;;;;;5057565;28;20043;-90
2022/04/18 12:44:10;;;;;;;2.40;2.20;;;30.60;99.90;;;;;;5055158;28;20040;-90
2022/04/18 12:46:36;;;;;;;2.13;2.03;;;30.20;99.90;;;;;;5055421;28;20025;-90
2022/04/18 12:49:08;;;;;;;2.75;2.53;;;30.30;99.90;;;;;;5053922;28;20040;-90
2022/04/18 12:51:38;;;;;;;3.55;2.50;;;30.00;99.90;;;;;;5053554;28;20448;-93
2022/04/18 12:54:04;;;;;;;2.88;2.40;;;29.60;99.90;;;;;;5034880;28;20033;-93
2022/04/18 12:56:30;;;;;;;2.40;2.20;;;29.70;99.90;;;;;;5057497;28;20099;-89
2022/04/18 12:59:05;;;;;;;2.50;2.30;;;29.80;99.90;;;;;;5053859;28;20062;-90
2022/04/18 13:01:33;;;;;;;2.78;2.03;;;29.30;99.90;;;;;;5053657;28;20033;-90
2022/04/18 13:04:00;;;;;;;2.35;2.15;;;28.50;99.90;;;;;;5054905;28;20134;-90
2022/04/18 13:06:34;;;;;;;2.20;2.00;;;28.30;99.90;;;;;;5053817;28;20020;-90
2022/04/18 13:09:10;;;;;;;1.80;1.70;;;28.30;99.90;;;;;;5050499;28;20075;-90
2022/04/18 13:11:41;;;;;;;3.13;1.83;;;28.80;99.90;;;;;;5065130;28;20032;-90
2022/04/18 13:14:08;;;;;;;2.67;1.83;;;28.40;99.90;;;;;;5055936;28;20075;-90
2022/04/18 13:16:34;;;;;;;1.70;1.60;;;28.10;99.90;;;;;;5054676;28;20124;-90
2022/04/18 13:19:10;;;;;;;2.55;1.50;;;28.30;99.90;;;;;;5055236;28;20052;-91
2022/04/18 13:21:41;;;;;;;1.75;1.40;;;28.70;99.90;;;;;;5054644;28;20020;-90
2022/04/18 13:24:08;;;;;;;1.92;1.70;;;29.10;99.90;;;;;;5050753;28;20163;-90
2022/04/18 13:26:35;;;;;;;1.40;1.30;;;28.90;99.90;;;;;;5055809;28;20440;-90
2022/04/18 13:29:01;;;;;;;2.45;1.50;;;29.30;99.90;;;;;;5055287;28;20056;-91
2022/04/18 13:31:27;;;;;;;3.03;1.33;;;28.50;99.90;;;;;;5053159;28;20041;-90